createdAt,value
2022-10-02T00:00:16.912Z,93.81
2022-10-02T00:03:12.109Z,94.57
2022-10-02T00:06:16.464Z,94.05
2022-10-02T00:09:04.758Z,93.40
2022-10-02T00:11:56.968Z,93.73
2022-10-02T00:14:46.342Z,93.70
2022-10-02T00:17:40.401Z,93.82
2022-10-02T00:20:39.451Z,93.00
2022-10-02T00:23:45.631Z,94.23
2022-10-02T00:26:42.226Z,93.76
2022-10-02T00:29:39.948Z,94.11
2022-10-02T00:32:36.032Z,94.12
2022-10-02T00:35:45.900Z,93.27
2022-10-02T00:38:52.747Z,93.85
2022-10-02T00:42:13.656Z,93.79
2022-10-02T00:45:41.759Z,93.79
2022-10-02T00:48:56.074Z,94.09
2022-10-02T00:52:04.153Z,92.32
2022-10-02T00:55:23.320Z,92.75
2022-10-02T00:58:34.533Z,92.62
2022-10-02T01:01:29.183Z,91.82
2022-10-02T01:04:36.544Z,92.55
2022-10-02T01:07:22.087Z,92.60
2022-10-02T01:10:07.432Z,93.81
2022-10-02T01:12:51.568Z,93.56
2022-10-02T01:15:50.996Z,93.40
2022-10-02T01:18:34.457Z,94.04
2022-10-02T01:21:46.809Z,93.38
2022-10-02T01:25:04.621Z,92.67
2022-10-02T01:27:48.662Z,93.53
2022-10-02T01:30:36.164Z,93.69
2022-10-02T01:33:20.257Z,92.79
2022-10-02T01:36:04.432Z,93.15
2022-10-02T01:38:51.778Z,94.71
2022-10-02T01:41:44.541Z,94.37
2022-10-02T01:44:28.242Z,93.82
2022-10-02T01:47:50.261Z,93.49
2022-10-02T01:50:51.442Z,92.56
2022-10-02T01:53:59.065Z,92.68
2022-10-02T01:57:15.751Z,92.49
2022-10-02T02:00:17.497Z,92.52
2022-10-02T02:03:31.595Z,91.65
2022-10-02T02:06:38.490Z,91.54
2022-10-02T02:09:42.613Z,91.18
2022-10-02T02:13:06.998Z,90.59
2022-10-02T02:16:25.119Z,90.03
2022-10-02T02:19:47.915Z,90.05
2022-10-02T02:22:39.549Z,90.53
2022-10-02T02:25:31.430Z,90.28
2022-10-02T02:28:21.078Z,89.98
2022-10-02T02:31:08.864Z,89.76
2022-10-02T02:33:59.575Z,88.59
2022-10-02T02:36:48.802Z,89.99
2022-10-02T02:40:02.219Z,91.61
2022-10-02T02:43:11.078Z,91.57
2022-10-02T02:46:01.521Z,91.25
2022-10-02T02:48:55.162Z,90.56
2022-10-02T02:51:44.839Z,91.89
2022-10-02T02:54:47.487Z,92.04
2022-10-02T02:58:09.046Z,92.97
2022-10-02T03:00:52.734Z,93.09
2022-10-02T03:03:36.266Z,92.52
2022-10-02T03:06:27.042Z,93.51
2022-10-02T03:09:21.041Z,93.69
2022-10-02T03:12:07.161Z,94.92
2022-10-02T03:15:13.915Z,93.62
2022-10-02T03:18:39.823Z,93.55
2022-10-02T03:21:45.822Z,92.14
2022-10-02T03:24:59.374Z,93.42
2022-10-02T03:28:43.367Z,92.89
2022-10-02T03:31:32.008Z,94.00
2022-10-02T03:34:18.061Z,92.98
2022-10-02T03:37:03.501Z,93.35
2022-10-02T03:39:47.603Z,92.53
2022-10-02T03:42:34.791Z,92.44
2022-10-02T03:45:46.306Z,92.71
2022-10-02T03:48:23.495Z,92.57
2022-10-02T03:51:07.451Z,92.43
2022-10-02T03:53:52.142Z,92.14
2022-10-02T03:56:58.444Z,92.59
2022-10-02T04:00:09.054Z,93.30
2022-10-02T04:03:25.198Z,92.72
2022-10-02T04:06:43.079Z,92.90
2022-10-02T04:09:51.668Z,92.19
2022-10-02T04:12:43.858Z,92.63
2022-10-02T04:16:08.316Z,91.91
2022-10-02T04:19:23.712Z,92.88
2022-10-02T04:22:26.431Z,93.71
2022-10-02T04:25:27.897Z,94.25
2022-10-02T04:28:19.773Z,93.78
2022-10-02T04:31:11.543Z,93.97
2022-10-02T04:34:03.232Z,94.30
2022-10-02T04:37:11.172Z,93.65
2022-10-02T04:40:38.091Z,93.11
2022-10-02T04:43:39.283Z,93.46
2022-10-02T04:46:59.336Z,94.08
2022-10-02T04:50:21.215Z,93.33
2022-10-02T04:53:54.138Z,92.96
2022-10-02T04:57:12.093Z,92.33
2022-10-02T05:00:08.379Z,91.89
2022-10-02T05:04:03.186Z,91.43
2022-10-02T05:07:16.269Z,92.54
2022-10-02T05:10:16.708Z,91.60
2022-10-02T05:13:21.977Z,92.43
2022-10-02T05:16:26.427Z,91.39
2022-10-02T05:20:03.729Z,91.11
2022-10-02T05:23:26.035Z,91.38
2022-10-02T05:26:24.593Z,91.74
2022-10-02T05:29:43.094Z,91.04
2022-10-02T05:32:52.637Z,90.76
2022-10-02T05:36:20.528Z,91.34
2022-10-02T05:39:07.362Z,90.82
2022-10-02T05:42:19.191Z,90.64
2022-10-02T05:45:38.552Z,91.48
2022-10-02T05:48:29.304Z,90.77
2022-10-02T05:51:37.336Z,90.43
2022-10-02T05:54:58.698Z,91.24
2022-10-02T05:57:54.940Z,91.74
2022-10-02T06:01:12.190Z,90.33
2022-10-02T06:04:37.582Z,90.88
2022-10-02T06:07:21.752Z,91.60
2022-10-02T06:10:26.532Z,91.44
2022-10-02T06:13:22.550Z,92.38
2022-10-02T06:16:30.203Z,93.00
2022-10-02T06:19:52.397Z,93.65
2022-10-02T06:22:56.279Z,94.46
2022-10-02T06:25:59.102Z,95.87
2022-10-02T06:29:18.347Z,96.13
2022-10-02T06:32:19.704Z,95.06
2022-10-02T06:35:14.400Z,96.52
2022-10-02T06:38:23.083Z,95.22
2022-10-02T06:41:47.574Z,94.43
2022-10-02T06:44:37.215Z,94.63
2022-10-02T06:48:03.443Z,93.92
2022-10-02T06:51:09.733Z,93.45
2022-10-02T06:54:19.493Z,93.60
2022-10-02T06:57:31.104Z,93.64
2022-10-02T07:00:22.505Z,92.96
2022-10-02T07:03:24.075Z,94.02
2022-10-02T07:06:41.589Z,93.71
2022-10-02T07:09:58.802Z,92.96
2022-10-02T07:13:30.334Z,92.59
2022-10-02T07:16:33.488Z,91.92
2022-10-02T07:19:57.701Z,92.90
2022-10-02T07:23:15.184Z,91.98
2022-10-02T07:26:28.097Z,91.27
2022-10-02T07:29:48.832Z,93.24
2022-10-02T07:32:40.421Z,92.24
2022-10-02T07:35:56.315Z,91.56
2022-10-02T07:39:00.865Z,91.99
2022-10-02T07:42:16.031Z,90.76
2022-10-02T07:45:27.871Z,91.58
2022-10-02T07:48:53.465Z,91.67
2022-10-02T07:52:13.747Z,90.59
2022-10-02T07:55:03.628Z,89.87
2022-10-02T07:58:11.156Z,89.49
2022-10-02T08:01:08.415Z,89.00
2022-10-02T08:04:03.595Z,89.46
2022-10-02T08:06:52.165Z,88.53
2022-10-02T08:09:48.910Z,88.00
2022-10-02T08:12:50.113Z,87.61
2022-10-02T08:15:38.838Z,87.42
2022-10-02T08:18:38.640Z,86.10
2022-10-02T08:21:26.159Z,85.14
2022-10-02T08:24:49.245Z,84.70
2022-10-02T08:28:11.882Z,84.50
2022-10-02T08:30:55.409Z,82.73
2022-10-02T08:33:39.456Z,83.21
2022-10-02T08:37:17.147Z,82.76
2022-10-02T08:40:36.141Z,82.85
2022-10-02T08:44:06.352Z,82.79
2022-10-02T08:47:30.196Z,82.33
2022-10-02T08:50:45.038Z,80.38
2022-10-02T08:54:20.967Z,80.67
2022-10-02T08:57:39.048Z,79.52
2022-10-02T09:00:25.325Z,79.17
2022-10-02T09:03:33.802Z,77.98
2022-10-02T09:06:38.965Z,79.22
2022-10-02T09:09:46.014Z,78.71
2022-10-02T09:13:12.860Z,78.61
2022-10-02T09:16:11.745Z,79.32
2022-10-02T09:20:07.343Z,78.58
2022-10-02T09:23:37.362Z,78.20
2022-10-02T09:26:50.607Z,78.31
2022-10-02T09:30:27.086Z,78.16
2022-10-02T09:33:53.252Z,77.39
2022-10-02T09:37:40.203Z,78.61
2022-10-02T09:40:54.146Z,77.83
2022-10-02T09:44:06.244Z,77.95
2022-10-02T09:47:26.713Z,78.32
2022-10-02T09:50:36.414Z,77.29
2022-10-02T09:53:41.450Z,77.83
2022-10-02T09:57:15.837Z,77.77
2022-10-02T10:00:18.431Z,76.62
2022-10-02T10:03:39.786Z,76.71
2022-10-02T10:06:53.454Z,74.15
2022-10-02T10:10:01.550Z,73.52
2022-10-02T10:13:22.503Z,74.31
2022-10-02T10:17:05.828Z,73.21
2022-10-02T10:20:22.873Z,75.08
2022-10-02T10:23:31.687Z,75.51
2022-10-02T10:26:45.679Z,77.77
2022-10-02T10:29:53.982Z,81.04
2022-10-02T10:33:15.971Z,83.40
2022-10-02T10:37:09.922Z,83.90
2022-10-02T10:40:38.338Z,86.48
2022-10-02T10:43:55.768Z,87.83
2022-10-02T10:46:59.501Z,85.88
2022-10-02T10:50:38.531Z,90.92
2022-10-02T10:53:50.010Z,89.37
2022-10-02T10:57:12.252Z,89.37
2022-10-02T11:00:26.879Z,90.96
2022-10-02T11:03:35.264Z,90.92
2022-10-02T11:06:38.010Z,89.78
2022-10-02T11:09:49.415Z,88.65
2022-10-02T11:13:00.818Z,87.44
2022-10-02T11:16:24.224Z,84.54
2022-10-02T11:19:35.770Z,88.53
2022-10-02T11:23:15.269Z,83.10
2022-10-02T11:26:37.890Z,83.04
2022-10-02T11:30:15.240Z,83.58
2022-10-02T11:33:36.159Z,84.67
2022-10-02T11:37:01.230Z,84.64
2022-10-02T11:40:13.030Z,87.21
2022-10-02T11:43:14.735Z,87.84
2022-10-02T11:46:37.756Z,90.07
2022-10-02T11:49:46.315Z,87.54
2022-10-02T11:52:54.306Z,88.64
2022-10-02T11:56:10.432Z,89.03
2022-10-02T11:59:23.322Z,88.75
2022-10-02T12:02:19.377Z,86.10
2022-10-02T12:05:36.047Z,83.84
2022-10-02T12:15:54.333Z,80.78
2022-10-02T12:19:09.986Z,82.73
2022-10-02T12:22:42.322Z,82.67
2022-10-02T12:26:10.573Z,83.09
2022-10-02T12:29:25.905Z,79.49
2022-10-02T12:33:01.983Z,80.41
2022-10-02T12:36:07.215Z,80.44
2022-10-02T12:39:29.126Z,80.66
2022-10-02T12:42:41.226Z,79.23
2022-10-02T12:46:08.264Z,76.68
2022-10-02T12:49:13.518Z,77.58
2022-10-02T12:56:16.517Z,75.01
2022-10-02T12:59:33.819Z,79.82
2022-10-02T13:03:05.494Z,79.56
2022-10-02T13:06:51.208Z,79.08
2022-10-02T13:09:55.789Z,77.74
2022-10-02T13:12:52.190Z,78.87
2022-10-02T13:16:22.943Z,77.58
2022-10-02T13:19:30.554Z,74.85
2022-10-02T13:22:38.657Z,77.45
2022-10-02T13:25:33.187Z,72.58
2022-10-02T13:28:54.114Z,73.34
2022-10-02T13:32:16.063Z,70.20
2022-10-02T13:35:29.490Z,70.62
2022-10-02T13:38:15.876Z,70.95
2022-10-02T13:41:40.587Z,71.10
2022-10-02T13:45:00.494Z,71.17
2022-10-02T13:48:23.108Z,70.26
2022-10-02T13:51:29.072Z,69.01
2022-10-02T13:55:02.454Z,69.48
2022-10-02T13:58:19.219Z,72.13
2022-10-02T14:01:26.178Z,76.12
2022-10-02T14:04:48.822Z,73.07
2022-10-02T14:08:21.423Z,70.98
2022-10-02T14:11:27.162Z,69.60
2022-10-02T14:14:39.523Z,68.53
2022-10-02T14:17:51.930Z,68.56
2022-10-02T14:20:51.725Z,67.18
2022-10-02T14:24:18.477Z,67.03
2022-10-02T14:27:21.876Z,67.05
2022-10-02T14:31:00.073Z,67.02
2022-10-02T14:34:16.885Z,63.98
2022-10-02T14:37:28.153Z,63.78
2022-10-02T14:40:19.172Z,63.98
2022-10-02T14:43:51.634Z,64.43
2022-10-02T14:47:15.322Z,64.11
2022-10-02T14:50:21.358Z,63.50
2022-10-02T14:53:37.437Z,64.08
2022-10-02T14:57:43.686Z,64.18
2022-10-02T15:00:51.600Z,64.85
2022-10-02T15:03:54.455Z,65.09
2022-10-02T15:06:53.536Z,66.37
2022-10-02T15:10:15.299Z,66.65
2022-10-02T15:13:24.366Z,65.98
2022-10-02T15:16:45.160Z,66.43
2022-10-02T15:19:49.860Z,66.64
2022-10-02T15:22:55.107Z,66.94
2022-10-02T15:26:07.421Z,66.83
2022-10-02T15:29:21.195Z,67.71
2022-10-02T15:32:44.179Z,67.70
2022-10-02T15:36:05.619Z,68.78
2022-10-02T15:39:41.273Z,68.25
2022-10-02T15:42:49.735Z,69.21
2022-10-02T15:46:01.783Z,69.29
2022-10-02T15:49:08.142Z,68.71
2022-10-02T15:52:09.593Z,69.02
2022-10-02T15:55:45.852Z,68.32
2022-10-02T15:59:10.118Z,69.37
2022-10-02T16:02:35.382Z,69.33
2022-10-02T16:05:45.478Z,70.28
2022-10-02T16:08:58.846Z,70.97
2022-10-02T16:12:25.416Z,71.34
2022-10-02T16:15:27.185Z,70.98
2022-10-02T16:19:04.093Z,71.72
2022-10-02T16:22:06.917Z,72.54
2022-10-02T16:25:14.184Z,72.63
2022-10-02T16:28:25.581Z,71.50
2022-10-02T16:31:50.579Z,70.55
2022-10-02T16:35:16.690Z,71.13
2022-10-02T16:38:33.725Z,72.33
2022-10-02T16:41:38.284Z,73.30
2022-10-02T16:44:39.713Z,74.20
2022-10-02T16:47:54.874Z,74.77
2022-10-02T16:51:09.506Z,74.65
2022-10-02T16:54:19.699Z,75.12
2022-10-02T16:57:35.302Z,75.03
2022-10-02T17:00:51.742Z,75.12
2022-10-02T17:03:53.821Z,75.62
2022-10-02T17:06:54.394Z,75.58
2022-10-02T17:09:52.899Z,75.63
2022-10-02T17:13:07.148Z,74.73
2022-10-02T17:16:24.314Z,75.49
2022-10-02T17:19:32.991Z,75.78
2022-10-02T17:22:42.217Z,75.34
2022-10-02T17:25:52.057Z,76.76
2022-10-02T17:29:11.488Z,76.52
2022-10-02T17:31:58.707Z,78.15
2022-10-02T17:34:47.978Z,80.75
2022-10-02T17:38:04.621Z,80.28
2022-10-02T17:41:29.456Z,80.93
2022-10-02T17:44:46.456Z,80.30
2022-10-02T17:48:09.936Z,79.60
2022-10-02T17:51:47.585Z,82.27
2022-10-02T17:55:21.252Z,82.72
2022-10-02T17:58:15.968Z,84.80
2022-10-02T18:01:08.153Z,83.38
2022-10-02T18:04:22.031Z,82.09
2022-10-02T18:07:05.327Z,83.78
2022-10-02T18:10:03.878Z,86.38
2022-10-02T18:13:36.981Z,88.15
2022-10-02T18:17:03.402Z,86.04
2022-10-02T18:20:34.391Z,86.65
2022-10-02T18:24:00.169Z,85.73
2022-10-02T18:27:18.370Z,85.91
2022-10-02T18:30:12.407Z,86.26
2022-10-02T18:33:25.196Z,86.88
2022-10-02T18:36:25.608Z,88.22
2022-10-02T18:39:40.923Z,87.10
2022-10-02T18:43:02.300Z,85.90
2022-10-02T18:45:58.095Z,87.14
2022-10-02T18:49:24.101Z,85.07
2022-10-02T18:52:28.522Z,86.61
2022-10-02T18:55:34.626Z,86.25
2022-10-02T18:58:44.191Z,87.41
2022-10-02T19:02:04.166Z,87.42
2022-10-02T19:05:30.408Z,85.37
2022-10-02T19:08:27.272Z,86.31
2022-10-02T19:11:19.223Z,87.05
2022-10-02T19:14:42.491Z,86.16
2022-10-02T19:17:29.734Z,86.56
2022-10-02T19:20:55.767Z,86.53
2022-10-02T19:23:48.137Z,86.10
2022-10-02T19:26:40.908Z,87.82
2022-10-02T19:29:54.435Z,86.37
2022-10-02T19:32:41.382Z,87.54
2022-10-02T19:35:33.766Z,87.13
2022-10-02T19:38:41.942Z,86.86
2022-10-02T19:41:26.265Z,88.15
2022-10-02T19:44:28.868Z,87.52
2022-10-02T19:47:27.398Z,87.08
2022-10-02T19:50:25.793Z,87.85
2022-10-02T19:53:25.338Z,90.02
2022-10-02T19:56:17.623Z,91.44
2022-10-02T19:59:19.693Z,91.19
2022-10-02T20:02:36.396Z,90.04
2022-10-02T20:05:30.147Z,88.85
2022-10-02T20:08:22.412Z,88.84
2022-10-02T20:11:31.891Z,89.06
2022-10-02T20:14:22.193Z,89.41
2022-10-02T20:17:12.838Z,89.48
2022-10-02T20:20:02.384Z,89.01
2022-10-02T20:22:58.862Z,90.42
2022-10-02T20:25:56.435Z,91.21
2022-10-02T20:29:03.810Z,89.52
2022-10-02T20:31:58.266Z,88.79
2022-10-02T20:34:56.514Z,88.99
2022-10-02T20:37:43.157Z,88.79
2022-10-02T20:40:31.678Z,88.79
2022-10-02T20:43:43.933Z,88.65
2022-10-02T20:47:01.941Z,87.73
2022-10-02T20:50:07.018Z,88.86
2022-10-02T20:53:28.787Z,89.50
2022-10-02T20:57:05.896Z,89.06
2022-10-02T21:00:06.081Z,89.01
2022-10-02T21:03:22.393Z,88.23
2022-10-02T21:06:38.567Z,88.78
2022-10-02T21:10:11.996Z,87.69
2022-10-02T21:13:33.481Z,88.47
2022-10-02T21:17:14.246Z,88.87
2022-10-02T21:20:51.575Z,89.03
2022-10-02T21:24:18.323Z,88.55
2022-10-02T21:27:07.575Z,87.72
2022-10-02T21:30:18.387Z,87.76
2022-10-02T21:33:14.181Z,88.04
2022-10-02T21:36:21.260Z,88.42
2022-10-02T21:39:45.053Z,88.17
2022-10-02T21:43:16.441Z,88.33
2022-10-02T21:46:27.095Z,88.09
2022-10-02T21:49:49.857Z,88.03
2022-10-02T21:52:53.533Z,87.75
2022-10-02T21:55:52.550Z,88.88
2022-10-02T21:59:13.579Z,89.63
2022-10-02T22:02:14.206Z,89.50
2022-10-02T22:05:09.748Z,89.71
2022-10-02T22:08:21.250Z,89.28
2022-10-02T22:11:24.100Z,88.67
2022-10-02T22:14:28.577Z,89.14
2022-10-02T22:17:19.666Z,89.94
2022-10-02T22:20:43.115Z,89.55
2022-10-02T22:23:39.347Z,90.37
2022-10-02T22:26:47.333Z,90.52
2022-10-02T22:30:21.340Z,90.95
2022-10-02T22:33:54.226Z,90.23
2022-10-02T22:37:09.053Z,90.77
2022-10-02T22:40:12.556Z,91.29
2022-10-02T22:43:08.388Z,91.04
2022-10-02T22:46:41.523Z,91.32
2022-10-02T22:49:45.477Z,91.45
2022-10-02T22:52:48.642Z,91.75
2022-10-02T22:55:39.828Z,91.08
2022-10-02T22:58:47.601Z,90.17
2022-10-02T23:01:56.958Z,90.08
2022-10-02T23:05:05.510Z,91.51
2022-10-02T23:08:15.340Z,92.69
2022-10-02T23:11:15.587Z,92.57
2022-10-02T23:14:14.043Z,92.69
2022-10-02T23:17:42.685Z,91.50
2022-10-02T23:20:36.043Z,92.41
2022-10-02T23:23:33.612Z,92.85
2022-10-02T23:26:33.517Z,93.67
2022-10-02T23:29:25.855Z,92.40
2022-10-02T23:32:27.231Z,93.05
2022-10-02T23:35:26.883Z,92.09
2022-10-02T23:38:33.249Z,93.94
2022-10-02T23:41:37.467Z,93.91
2022-10-02T23:44:50.185Z,93.65
2022-10-02T23:48:03.518Z,94.46
2022-10-02T23:51:22.033Z,93.69
2022-10-02T23:54:29.574Z,93.90
2022-10-02T23:57:34.664Z,94.20
